sensor_id;sensor_type;location;lat;lon;timestamp;P1;durP1;ratioP1;P2;durP2;ratioP2
56114;SDS011;41988;53.020;6.576;2023-04-01T00:00:25;12.43;;;7.20;;
56114;SDS011;41988;53.020;6.576;2023-04-01T00:03:10;13.75;;;7.95;;
56114;SDS011;41988;53.020;6.576;2023-04-01T00:05:56;10.30;;;7.40;;
56114;SDS011;41988;53.020;6.576;2023-04-01T00:08:41;11.90;;;7.72;;
56114;SDS011;41988;53.020;6.576;2023-04-01T00:11:25;11.75;;;7.70;;
56114;SDS011;41988;53.020;6.576;2023-04-01T00:14:11;12.35;;;8.07;;
56114;SDS011;41988;53.020;6.576;2023-04-01T00:16:56;14.50;;;7.60;;
56114;SDS011;41988;53.020;6.576;2023-04-01T00:19:40;11.45;;;8.30;;
56114;SDS011;41988;53.020;6.576;2023-04-01T00:22:25;14.05;;;8.18;;
56114;SDS011;41988;53.020;6.576;2023-04-01T00:25:10;10.70;;;7.35;;
56114;SDS011;41988;53.020;6.576;2023-04-01T00:27:55;12.10;;;7.32;;
56114;SDS011;41988;53.020;6.576;2023-04-01T00:30:39;12.15;;;8.10;;
56114;SDS011;41988;53.020;6.576;2023-04-01T00:33:24;12.55;;;7.65;;
56114;SDS011;41988;53.020;6.576;2023-04-01T00:36:15;11.93;;;7.75;;
56114;SDS011;41988;53.020;6.576;2023-04-01T00:39:00;14.00;;;8.45;;
56114;SDS011;41988;53.020;6.576;2023-04-01T00:41:45;10.85;;;8.00;;
56114;SDS011;41988;53.020;6.576;2023-04-01T00:44:31;12.60;;;7.72;;
56114;SDS011;41988;53.020;6.576;2023-04-01T00:47:17;13.95;;;7.95;;
56114;SDS011;41988;53.020;6.576;2023-04-01T00:50:01;11.40;;;7.82;;
56114;SDS011;41988;53.020;6.576;2023-04-01T00:52:46;12.70;;;7.93;;
56114;SDS011;41988;53.020;6.576;2023-04-01T00:55:32;15.55;;;7.85;;
56114;SDS011;41988;53.020;6.576;2023-04-01T00:58:18;11.45;;;7.85;;
56114;SDS011;41988;53.020;6.576;2023-04-01T01:01:04;11.77;;;7.68;;
56114;SDS011;41988;53.020;6.576;2023-04-01T01:03:49;12.75;;;7.63;;
56114;SDS011;41988;53.020;6.576;2023-04-01T01:06:44;13.88;;;8.23;;
56114;SDS011;41988;53.020;6.576;2023-04-01T01:09:38;12.57;;;8.10;;
56114;SDS011;41988;53.020;6.576;2023-04-01T01:13:10;16.85;;;9.25;;
56114;SDS011;41988;53.020;6.576;2023-04-01T01:24:42;15.93;;;8.52;;
56114;SDS011;41988;53.020;6.576;2023-04-01T01:27:36;14.98;;;9.60;;
56114;SDS011;41988;53.020;6.576;2023-04-01T01:33:18;13.73;;;7.78;;
56114;SDS011;41988;53.020;6.576;2023-04-01T01:36:09;13.57;;;8.15;;
56114;SDS011;41988;53.020;6.576;2023-04-01T01:38:56;16.90;;;8.90;;
56114;SDS011;41988;53.020;6.576;2023-04-01T01:41:42;16.90;;;9.25;;
56114;SDS011;41988;53.020;6.576;2023-04-01T01:44:28;13.95;;;8.60;;
56114;SDS011;41988;53.020;6.576;2023-04-01T01:47:14;11.80;;;7.43;;
56114;SDS011;41988;53.020;6.576;2023-04-01T01:49:59;11.95;;;7.80;;
56114;SDS011;41988;53.020;6.576;2023-04-01T01:52:44;13.95;;;7.68;;
56114;SDS011;41988;53.020;6.576;2023-04-01T01:55:30;15.00;;;8.15;;
56114;SDS011;41988;53.020;6.576;2023-04-01T02:01:20;18.05;;;7.82;;
56114;SDS011;41988;53.020;6.576;2023-04-01T02:04:09;13.55;;;7.72;;
56114;SDS011;41988;53.020;6.576;2023-04-01T02:06:59;10.80;;;7.53;;
56114;SDS011;41988;53.020;6.576;2023-04-01T02:09:46;15.32;;;7.50;;
56114;SDS011;41988;53.020;6.576;2023-04-01T02:12:31;14.75;;;7.82;;
56114;SDS011;41988;53.020;6.576;2023-04-01T02:15:16;13.43;;;7.30;;
56114;SDS011;41988;53.020;6.576;2023-04-01T02:18:03;12.00;;;7.00;;
56114;SDS011;41988;53.020;6.576;2023-04-01T02:20:48;14.15;;;6.75;;
56114;SDS011;41988;53.020;6.576;2023-04-01T02:23:33;13.13;;;6.60;;
56114;SDS011;41988;53.020;6.576;2023-04-01T02:26:19;11.57;;;6.38;;
56114;SDS011;41988;53.020;6.576;2023-04-01T02:29:05;15.50;;;7.60;;
56114;SDS011;41988;53.020;6.576;2023-04-01T02:31:50;11.98;;;6.60;;
56114;SDS011;41988;53.020;6.576;2023-04-01T02:34:35;9.93;;;5.75;;
56114;SDS011;41988;53.020;6.576;2023-04-01T02:37:20;11.43;;;5.57;;
56114;SDS011;41988;53.020;6.576;2023-04-01T02:40:06;11.48;;;5.97;;
56114;SDS011;41988;53.020;6.576;2023-04-01T02:42:52;13.52;;;7.03;;
56114;SDS011;41988;53.020;6.576;2023-04-01T02:45:37;11.23;;;4.25;;
56114;SDS011;41988;53.020;6.576;2023-04-01T02:48:21;6.10;;;3.10;;
56114;SDS011;41988;53.020;6.576;2023-04-01T02:51:06;7.45;;;3.80;;
56114;SDS011;41988;53.020;6.576;2023-04-01T02:53:50;7.15;;;3.90;;
56114;SDS011;41988;53.020;6.576;2023-04-01T02:56:35;5.45;;;3.28;;
56114;SDS011;41988;53.020;6.576;2023-04-01T02:59:19;6.32;;;3.15;;
56114;SDS011;41988;53.020;6.576;2023-04-01T03:02:04;6.05;;;2.95;;
56114;SDS011;41988;53.020;6.576;2023-04-01T03:04:49;6.13;;;2.50;;
56114;SDS011;41988;53.020;6.576;2023-04-01T03:07:33;4.43;;;1.60;;
56114;SDS011;41988;53.020;6.576;2023-04-01T03:10:18;3.78;;;1.88;;
56114;SDS011;41988;53.020;6.576;2023-04-01T03:13:02;6.60;;;1.90;;
56114;SDS011;41988;53.020;6.576;2023-04-01T03:15:47;4.57;;;1.58;;
56114;SDS011;41988;53.020;6.576;2023-04-01T03:18:31;3.88;;;1.73;;
56114;SDS011;41988;53.020;6.576;2023-04-01T03:21:17;3.85;;;1.40;;
56114;SDS011;41988;53.020;6.576;2023-04-01T03:24:02;3.67;;;1.70;;
56114;SDS011;41988;53.020;6.576;2023-04-01T03:26:47;2.80;;;1.33;;
56114;SDS011;41988;53.020;6.576;2023-04-01T03:29:31;5.22;;;1.98;;
56114;SDS011;41988;53.020;6.576;2023-04-01T03:32:16;4.15;;;1.80;;
56114;SDS011;41988;53.020;6.576;2023-04-01T03:35:01;4.05;;;2.03;;
56114;SDS011;41988;53.020;6.576;2023-04-01T03:37:45;6.63;;;3.25;;
56114;SDS011;41988;53.020;6.576;2023-04-01T03:40:30;7.75;;;3.83;;
56114;SDS011;41988;53.020;6.576;2023-04-01T03:43:16;10.68;;;5.22;;
56114;SDS011;41988;53.020;6.576;2023-04-01T03:46:01;14.93;;;6.18;;
56114;SDS011;41988;53.020;6.576;2023-04-01T03:48:46;14.73;;;6.55;;
56114;SDS011;41988;53.020;6.576;2023-04-01T03:51:30;16.83;;;7.43;;
56114;SDS011;41988;53.020;6.576;2023-04-01T03:54:15;18.58;;;8.55;;
56114;SDS011;41988;53.020;6.576;2023-04-01T03:57:00;21.00;;;9.32;;
56114;SDS011;41988;53.020;6.576;2023-04-01T03:59:45;21.17;;;8.57;;
56114;SDS011;41988;53.020;6.576;2023-04-01T04:02:29;20.90;;;9.10;;
56114;SDS011;41988;53.020;6.576;2023-04-01T04:05:14;17.05;;;8.95;;
56114;SDS011;41988;53.020;6.576;2023-04-01T04:07:58;21.05;;;9.27;;
56114;SDS011;41988;53.020;6.576;2023-04-01T04:10:43;18.13;;;8.20;;
56114;SDS011;41988;53.020;6.576;2023-04-01T04:13:27;19.23;;;8.63;;
56114;SDS011;41988;53.020;6.576;2023-04-01T04:16:12;19.08;;;8.40;;
56114;SDS011;41988;53.020;6.576;2023-04-01T04:18:56;17.25;;;8.45;;
56114;SDS011;41988;53.020;6.576;2023-04-01T04:21:41;16.80;;;8.02;;
56114;SDS011;41988;53.020;6.576;2023-04-01T04:24:26;15.07;;;7.40;;
56114;SDS011;41988;53.020;6.576;2023-04-01T04:27:11;15.35;;;8.02;;
56114;SDS011;41988;53.020;6.576;2023-04-01T04:29:55;17.85;;;8.15;;
56114;SDS011;41988;53.020;6.576;2023-04-01T04:32:40;17.63;;;7.55;;
56114;SDS011;41988;53.020;6.576;2023-04-01T04:35:25;16.40;;;6.80;;
56114;SDS011;41988;53.020;6.576;2023-04-01T04:38:13;19.35;;;8.07;;
56114;SDS011;41988;53.020;6.576;2023-04-01T04:41:00;17.30;;;7.88;;
56114;SDS011;41988;53.020;6.576;2023-04-01T04:43:51;18.65;;;8.15;;
56114;SDS011;41988;53.020;6.576;2023-04-01T04:46:36;19.90;;;9.13;;
56114;SDS011;41988;53.020;6.576;2023-04-01T04:49:22;18.02;;;8.52;;
56114;SDS011;41988;53.020;6.576;2023-04-01T04:52:07;20.50;;;8.13;;
56114;SDS011;41988;53.020;6.576;2023-04-01T04:54:55;17.38;;;7.90;;
56114;SDS011;41988;53.020;6.576;2023-04-01T04:57:45;21.20;;;7.95;;
56114;SDS011;41988;53.020;6.576;2023-04-01T05:00:29;19.42;;;8.98;;
56114;SDS011;41988;53.020;6.576;2023-04-01T05:03:14;18.55;;;8.15;;
56114;SDS011;41988;53.020;6.576;2023-04-01T05:05:58;20.73;;;8.85;;
56114;SDS011;41988;53.020;6.576;2023-04-01T05:08:43;22.38;;;9.00;;
56114;SDS011;41988;53.020;6.576;2023-04-01T05:11:28;17.73;;;8.60;;
56114;SDS011;41988;53.020;6.576;2023-04-01T05:14:13;19.63;;;9.57;;
56114;SDS011;41988;53.020;6.576;2023-04-01T05:16:58;24.27;;;10.60;;
56114;SDS011;41988;53.020;6.576;2023-04-01T05:19:43;23.20;;;10.07;;
56114;SDS011;41988;53.020;6.576;2023-04-01T05:22:28;25.00;;;9.70;;
56114;SDS011;41988;53.020;6.576;2023-04-01T05:25:13;23.48;;;10.63;;
56114;SDS011;41988;53.020;6.576;2023-04-01T05:27:57;22.20;;;10.27;;
56114;SDS011;41988;53.020;6.576;2023-04-01T05:30:43;25.17;;;10.40;;
56114;SDS011;41988;53.020;6.576;2023-04-01T05:33:30;22.92;;;10.10;;
56114;SDS011;41988;53.020;6.576;2023-04-01T05:36:15;24.08;;;10.13;;
56114;SDS011;41988;53.020;6.576;2023-04-01T05:39:00;24.77;;;10.68;;
56114;SDS011;41988;53.020;6.576;2023-04-01T05:41:44;18.38;;;8.50;;
56114;SDS011;41988;53.020;6.576;2023-04-01T05:44:29;17.77;;;8.52;;
56114;SDS011;41988;53.020;6.576;2023-04-01T05:47:22;18.65;;;9.00;;
56114;SDS011;41988;53.020;6.576;2023-04-01T05:50:10;18.90;;;8.85;;
56114;SDS011;41988;53.020;6.576;2023-04-01T05:52:55;18.05;;;7.78;;
56114;SDS011;41988;53.020;6.576;2023-04-01T05:55:47;17.13;;;7.93;;
56114;SDS011;41988;53.020;6.576;2023-04-01T05:58:31;20.08;;;8.05;;
56114;SDS011;41988;53.020;6.576;2023-04-01T06:01:16;15.27;;;6.90;;
56114;SDS011;41988;53.020;6.576;2023-04-01T06:04:06;16.08;;;7.95;;
56114;SDS011;41988;53.020;6.576;2023-04-01T06:06:50;12.10;;;6.28;;
56114;SDS011;41988;53.020;6.576;2023-04-01T06:09:35;12.38;;;6.22;;
56114;SDS011;41988;53.020;6.576;2023-04-01T06:39:13;20.67;;;10.35;;
56114;SDS011;41988;53.020;6.576;2023-04-01T06:42:10;26.27;;;12.32;;
56114;SDS011;41988;53.020;6.576;2023-04-01T06:50:34;25.50;;;12.27;;
56114;SDS011;41988;53.020;6.576;2023-04-01T07:08:23;31.80;;;15.20;;
56114;SDS011;41988;53.020;6.576;2023-04-01T07:11:10;31.10;;;14.27;;
56114;SDS011;41988;53.020;6.576;2023-04-01T07:14:10;29.83;;;14.35;;
56114;SDS011;41988;53.020;6.576;2023-04-01T07:17:04;28.95;;;13.68;;
56114;SDS011;41988;53.020;6.576;2023-04-01T07:22:39;27.75;;;13.40;;
56114;SDS011;41988;53.020;6.576;2023-04-01T07:28:20;39.90;;;16.25;;
56114;SDS011;41988;53.020;6.576;2023-04-01T07:34:18;31.67;;;14.38;;
56114;SDS011;41988;53.020;6.576;2023-04-01T07:37:15;34.92;;;15.25;;
56114;SDS011;41988;53.020;6.576;2023-04-01T07:46:03;31.08;;;13.75;;
56114;SDS011;41988;53.020;6.576;2023-04-01T07:52:24;40.05;;;15.20;;
56114;SDS011;41988;53.020;6.576;2023-04-01T07:55:14;35.47;;;15.48;;
56114;SDS011;41988;53.020;6.576;2023-04-01T08:00:56;32.10;;;15.45;;
56114;SDS011;41988;53.020;6.576;2023-04-01T08:03:48;32.15;;;15.70;;
56114;SDS011;41988;53.020;6.576;2023-04-01T08:07:09;27.98;;;14.45;;
56114;SDS011;41988;53.020;6.576;2023-04-01T08:10:06;25.65;;;14.50;;
56114;SDS011;41988;53.020;6.576;2023-04-01T08:13:15;28.40;;;14.02;;
56114;SDS011;41988;53.020;6.576;2023-04-01T08:21:42;21.10;;;13.80;;
56114;SDS011;41988;53.020;6.576;2023-04-01T08:24:29;22.60;;;13.32;;
56114;SDS011;41988;53.020;6.576;2023-04-01T08:27:20;24.00;;;13.77;;
56114;SDS011;41988;53.020;6.576;2023-04-01T08:33:12;24.52;;;13.90;;
56114;SDS011;41988;53.020;6.576;2023-04-01T08:38:51;22.98;;;13.10;;
56114;SDS011;41988;53.020;6.576;2023-04-01T08:50:34;18.08;;;10.93;;
56114;SDS011;41988;53.020;6.576;2023-04-01T08:53:24;14.13;;;9.27;;
56114;SDS011;41988;53.020;6.576;2023-04-01T08:59:15;18.67;;;10.65;;
56114;SDS011;41988;53.020;6.576;2023-04-01T09:07:54;20.50;;;11.52;;
56114;SDS011;41988;53.020;6.576;2023-04-01T09:10:49;19.90;;;11.43;;
56114;SDS011;41988;53.020;6.576;2023-04-01T09:44:18;16.10;;;10.60;;
56114;SDS011;41988;53.020;6.576;2023-04-01T10:24:14;8.02;;;4.63;;
56114;SDS011;41988;53.020;6.576;2023-04-01T10:39:35;8.18;;;4.53;;
56114;SDS011;41988;53.020;6.576;2023-04-01T11:00:08;6.57;;;4.10;;
56114;SDS011;41988;53.020;6.576;2023-04-01T11:11:59;7.53;;;4.40;;
56114;SDS011;41988;53.020;6.576;2023-04-01T11:14:59;5.45;;;3.60;;
56114;SDS011;41988;53.020;6.576;2023-04-01T11:32:50;4.60;;;3.40;;
56114;SDS011;41988;53.020;6.576;2023-04-01T11:44:23;4.80;;;3.35;;
56114;SDS011;41988;53.020;6.576;2023-04-01T11:47:19;4.07;;;2.90;;
56114;SDS011;41988;53.020;6.576;2023-04-01T11:50:18;4.53;;;3.17;;
56114;SDS011;41988;53.020;6.576;2023-04-01T11:53:09;4.10;;;3.00;;
56114;SDS011;41988;53.020;6.576;2023-04-01T11:56:18;4.65;;;3.42;;
56114;SDS011;41988;53.020;6.576;2023-04-01T11:59:11;6.90;;;3.38;;
56114;SDS011;41988;53.020;6.576;2023-04-01T12:11:00;5.78;;;3.67;;
56114;SDS011;41988;53.020;6.576;2023-04-01T12:17:26;5.22;;;4.00;;
56114;SDS011;41988;53.020;6.576;2023-04-01T12:26:10;6.65;;;3.33;;
56114;SDS011;41988;53.020;6.576;2023-04-01T12:41:46;3.97;;;3.00;;
56114;SDS011;41988;53.020;6.576;2023-04-01T12:48:02;4.20;;;2.65;;
56114;SDS011;41988;53.020;6.576;2023-04-01T13:06:25;4.35;;;3.13;;
56114;SDS011;41988;53.020;6.576;2023-04-01T13:09:36;4.30;;;3.50;;
56114;SDS011;41988;53.020;6.576;2023-04-01T13:20:57;4.72;;;3.30;;
56114;SDS011;41988;53.020;6.576;2023-04-01T13:29:57;4.22;;;2.83;;
56114;SDS011;41988;53.020;6.576;2023-04-01T13:38:51;5.05;;;3.00;;
56114;SDS011;41988;53.020;6.576;2023-04-01T13:44:35;4.35;;;2.78;;
56114;SDS011;41988;53.020;6.576;2023-04-01T13:47:31;3.08;;;2.17;;
56114;SDS011;41988;53.020;6.576;2023-04-01T13:50:27;3.17;;;2.42;;
56114;SDS011;41988;53.020;6.576;2023-04-01T13:53:22;4.20;;;2.90;;
56114;SDS011;41988;53.020;6.576;2023-04-01T13:56:37;3.33;;;2.50;;
56114;SDS011;41988;53.020;6.576;2023-04-01T14:20:14;2.97;;;1.98;;
56114;SDS011;41988;53.020;6.576;2023-04-01T14:28:53;2.88;;;1.88;;
56114;SDS011;41988;53.020;6.576;2023-04-01T14:31:47;4.53;;;2.30;;
56114;SDS011;41988;53.020;6.576;2023-04-01T14:41:29;4.38;;;2.97;;
56114;SDS011;41988;53.020;6.576;2023-04-01T14:50:22;3.28;;;2.67;;
56114;SDS011;41988;53.020;6.576;2023-04-01T14:53:22;4.38;;;2.47;;
56114;SDS011;41988;53.020;6.576;2023-04-01T14:56:09;3.22;;;2.38;;
56114;SDS011;41988;53.020;6.576;2023-04-01T14:58:57;3.50;;;2.53;;
56114;SDS011;41988;53.020;6.576;2023-04-01T15:07:20;4.53;;;2.90;;
56114;SDS011;41988;53.020;6.576;2023-04-01T15:24:59;3.20;;;2.50;;
56114;SDS011;41988;53.020;6.576;2023-04-01T15:28:22;4.05;;;2.63;;
56114;SDS011;41988;53.020;6.576;2023-04-01T15:31:21;4.47;;;2.35;;
56114;SDS011;41988;53.020;6.576;2023-04-01T15:34:26;11.73;;;3.13;;
56114;SDS011;41988;53.020;6.576;2023-04-01T15:40:27;5.40;;;3.00;;
56114;SDS011;41988;53.020;6.576;2023-04-01T15:43:15;6.95;;;3.15;;
56114;SDS011;41988;53.020;6.576;2023-04-01T15:46:14;5.50;;;3.30;;
56114;SDS011;41988;53.020;6.576;2023-04-01T15:55:15;4.85;;;3.65;;
56114;SDS011;41988;53.020;6.576;2023-04-01T16:01:09;4.78;;;3.63;;
56114;SDS011;41988;53.020;6.576;2023-04-01T16:09:43;5.68;;;3.90;;
56114;SDS011;41988;53.020;6.576;2023-04-01T16:12:46;4.82;;;3.58;;
56114;SDS011;41988;53.020;6.576;2023-04-01T16:16:14;9.20;;;5.07;;
56114;SDS011;41988;53.020;6.576;2023-04-01T16:19:32;6.45;;;4.00;;
56114;SDS011;41988;53.020;6.576;2023-04-01T16:25:45;7.75;;;3.50;;
56114;SDS011;41988;53.020;6.576;2023-04-01T16:28:36;12.48;;;4.75;;
56114;SDS011;41988;53.020;6.576;2023-04-01T16:31:34;6.32;;;4.05;;
56114;SDS011;41988;53.020;6.576;2023-04-01T16:34:30;8.18;;;4.63;;
56114;SDS011;41988;53.020;6.576;2023-04-01T16:37:22;11.73;;;5.32;;
56114;SDS011;41988;53.020;6.576;2023-04-01T16:44:09;8.52;;;5.00;;
56114;SDS011;41988;53.020;6.576;2023-04-01T16:46:58;9.20;;;5.20;;
56114;SDS011;41988;53.020;6.576;2023-04-01T16:49:53;8.00;;;4.32;;
56114;SDS011;41988;53.020;6.576;2023-04-01T16:58:57;11.77;;;5.60;;
56114;SDS011;41988;53.020;6.576;2023-04-01T17:01:53;8.93;;;4.50;;
56114;SDS011;41988;53.020;6.576;2023-04-01T17:04:54;10.57;;;5.15;;
56114;SDS011;41988;53.020;6.576;2023-04-01T17:10:44;8.10;;;3.97;;
56114;SDS011;41988;53.020;6.576;2023-04-01T17:14:00;6.82;;;4.50;;
56114;SDS011;41988;53.020;6.576;2023-04-01T17:22:51;7.88;;;5.13;;
56114;SDS011;41988;53.020;6.576;2023-04-01T17:40:55;9.75;;;6.45;;
56114;SDS011;41988;53.020;6.576;2023-04-01T17:44:45;8.15;;;4.78;;
56114;SDS011;41988;53.020;6.576;2023-04-01T17:47:02;9.70;;;5.32;;
56114;SDS011;41988;53.020;6.576;2023-04-01T17:52:46;10.65;;;5.53;;
56114;SDS011;41988;53.020;6.576;2023-04-01T17:58:38;39.03;;;19.55;;
56114;SDS011;41988;53.020;6.576;2023-04-01T18:33:18;16.33;;;10.25;;
56114;SDS011;41988;53.020;6.576;2023-04-01T18:40:10;12.88;;;9.23;;
56114;SDS011;41988;53.020;6.576;2023-04-01T18:43:27;14.70;;;7.45;;
56114;SDS011;41988;53.020;6.576;2023-04-01T18:56:34;26.52;;;13.88;;
56114;SDS011;41988;53.020;6.576;2023-04-01T20:21:53;11.05;;;6.63;;
56114;SDS011;41988;53.020;6.576;2023-04-01T20:24:44;14.00;;;6.17;;
56114;SDS011;41988;53.020;6.576;2023-04-01T20:27:35;14.98;;;7.80;;
56114;SDS011;41988;53.020;6.576;2023-04-01T20:33:22;10.57;;;6.47;;
56114;SDS011;41988;53.020;6.576;2023-04-01T20:51:21;20.27;;;6.43;;
56114;SDS011;41988;53.020;6.576;2023-04-01T21:00:16;11.30;;;5.25;;
56114;SDS011;41988;53.020;6.576;2023-04-01T21:12:04;11.07;;;6.03;;
56114;SDS011;41988;53.020;6.576;2023-04-01T21:26:38;16.67;;;7.40;;
56114;SDS011;41988;53.020;6.576;2023-04-01T21:29:34;10.07;;;6.18;;
56114;SDS011;41988;53.020;6.576;2023-04-01T22:05:06;10.17;;;6.13;;
56114;SDS011;41988;53.020;6.576;2023-04-01T22:10:59;16.90;;;5.32;;
56114;SDS011;41988;53.020;6.576;2023-04-01T22:22:57;12.93;;;6.03;;
56114;SDS011;41988;53.020;6.576;2023-04-01T22:31:37;9.00;;;4.90;;
56114;SDS011;41988;53.020;6.576;2023-04-01T22:34:32;9.30;;;5.10;;
56114;SDS011;41988;53.020;6.576;2023-04-01T22:37:29;7.73;;;4.93;;
56114;SDS011;41988;53.020;6.576;2023-04-01T22:43:38;8.90;;;4.37;;
56114;SDS011;41988;53.020;6.576;2023-04-01T22:52:16;12.87;;;5.03;;
56114;SDS011;41988;53.020;6.576;2023-04-01T22:55:03;10.00;;;4.87;;
56114;SDS011;41988;53.020;6.576;2023-04-01T22:57:50;9.47;;;5.03;;
56114;SDS011;41988;53.020;6.576;2023-04-01T23:00:40;11.50;;;5.63;;
56114;SDS011;41988;53.020;6.576;2023-04-01T23:03:28;9.90;;;4.50;;
56114;SDS011;41988;53.020;6.576;2023-04-01T23:09:34;9.33;;;4.50;;
56114;SDS011;41988;53.020;6.576;2023-04-01T23:12:22;8.00;;;3.83;;
56114;SDS011;41988;53.020;6.576;2023-04-01T23:15:11;12.45;;;4.80;;
56114;SDS011;41988;53.020;6.576;2023-04-01T23:29:16;14.50;;;6.23;;
56114;SDS011;41988;53.020;6.576;2023-04-01T23:32:05;10.27;;;4.07;;
56114;SDS011;41988;53.020;6.576;2023-04-01T23:34:51;7.80;;;3.90;;
56114;SDS011;41988;53.020;6.576;2023-04-01T23:37:36;8.47;;;4.50;;
56114;SDS011;41988;53.020;6.576;2023-04-01T23:40:20;8.80;;;5.43;;
56114;SDS011;41988;53.020;6.576;2023-04-01T23:43:12;7.30;;;4.90;;
56114;SDS011;41988;53.020;6.576;2023-04-01T23:45:58;5.27;;;3.83;;
56114;SDS011;41988;53.020;6.576;2023-04-01T23:48:44;8.60;;;4.40;;
56114;SDS011;41988;53.020;6.576;2023-04-01T23:51:36;7.37;;;4.47;;
56114;SDS011;41988;53.020;6.576;2023-04-01T23:54:29;7.13;;;4.37;;
56114;SDS011;41988;53.020;6.576;2023-04-01T23:57:19;7.80;;;4.30;;
